Time;durP1;ratioP1;P1;durP2;ratioP2;P2;SDS_P1;SDS_P2;PMS_P1;PMS_P2;Temp;Humidity;BMP_temperature;BMP_pressure;BME280_temperature;BME280_humidity;BME280_pressure;Samples;Min_cycle;Max_cycle;Signal;HPM_P1;HPM_P2
2022/07/08 00:01:56;;;;;;;5.97;4.32;;;;;;;18.09;100.00;100713.16;4877195;29;20052;-87
2022/07/08 00:04:22;;;;;;;9.65;5.10;;;;;;;18.22;100.00;100711.50;4906004;29;20036;-88
2022/07/08 00:06:48;;;;;;;7.30;4.80;;;;;;;18.27;100.00;100714.34;4892210;29;20043;-89
2022/07/08 00:09:14;;;;;;;4.85;4.40;;;;;;;18.00;100.00;100709.00;4895146;29;20039;-85
2022/07/08 00:11:41;;;;;;;5.85;4.65;;;;;;;17.93;100.00;100708.19;4904934;29;20091;-86
2022/07/08 00:14:06;;;;;;;8.15;4.28;;;;;;;17.97;100.00;100706.75;4890703;29;20052;-86
2022/07/08 00:16:33;;;;;;;6.00;4.38;;;;;;;18.13;100.00;100693.09;4888835;29;20400;-86
2022/07/08 00:19:00;;;;;;;6.10;4.70;;;;;;;18.17;100.00;100703.31;4910406;29;20039;-87
2022/07/08 00:21:25;;;;;;;7.72;5.00;;;;;;;17.94;100.00;100694.69;4907390;29;20119;-87
2022/07/08 00:23:51;;;;;;;5.95;4.72;;;;;;;17.54;100.00;100687.47;4899231;29;20111;-86
2022/07/08 00:26:17;;;;;;;5.30;4.43;;;;;;;17.73;100.00;100697.50;4907109;29;20077;-86
2022/07/08 00:28:42;;;;;;;5.85;4.57;;;;;;;17.87;100.00;100683.25;4889638;29;20033;-86
2022/07/08 00:31:08;;;;;;;6.15;4.75;;;;;;;17.82;100.00;100683.84;4910349;29;20060;-87
2022/07/08 00:33:34;;;;;;;6.20;4.82;;;;;;;18.06;100.00;100702.09;4907932;29;20510;-87
2022/07/08 00:36:00;;;;;;;8.05;5.43;;;;;;;17.78;100.00;100679.97;4889315;29;20036;-87
2022/07/08 00:38:25;;;;;;;6.30;4.63;;;;;;;17.76;100.00;100681.16;4901395;29;20475;-88
2022/07/08 00:40:51;;;;;;;6.80;5.18;;;;;;;17.49;100.00;100683.78;4874043;29;20117;-88
2022/07/08 00:43:40;;;;;;;4.85;4.45;;;;;;;17.73;100.00;100703.66;4893591;29;20111;-87
2022/07/08 00:46:07;;;;;;;6.32;4.10;;;;;;;17.80;100.00;100688.53;4889425;29;20048;-86
2022/07/08 00:48:33;;;;;;;5.30;4.40;;;;;;;17.83;100.00;100687.31;4890288;29;20123;-88
2022/07/08 00:51:02;;;;;;;4.72;3.72;;;;;;;17.75;100.00;100677.72;4892001;29;20479;-86
2022/07/08 00:53:30;;;;;;;5.10;3.65;;;;;;;17.83;100.00;100688.13;4889723;29;20038;-87
2022/07/08 00:55:57;;;;;;;4.95;3.65;;;;;;;17.90;100.00;100693.44;4888260;29;20039;-89
2022/07/08 00:58:24;;;;;;;4.88;3.97;;;;;;;17.79;100.00;100702.84;4906428;29;20162;-86
2022/07/08 01:00:51;;;;;;;7.00;4.55;;;;;;;17.75;100.00;100696.28;4889787;29;20402;-88
2022/07/08 01:03:17;;;;;;;6.68;3.97;;;;;;;17.81;100.00;100695.47;4888585;29;20024;-86
2022/07/08 01:05:43;;;;;;;7.65;4.35;;;;;;;17.77;100.00;100694.25;4893019;29;20530;-88
2022/07/08 01:08:08;;;;;;;6.78;4.35;;;;;;;17.84;100.00;100673.81;4893178;29;20032;-88
2022/07/08 01:10:34;;;;;;;4.70;4.03;;;;;;;17.69;100.00;100686.50;4888500;29;20040;-87
2022/07/08 01:13:00;;;;;;;6.32;3.60;;;;;;;17.64;100.00;100667.66;4892189;29;20439;-89
2022/07/08 01:15:25;;;;;;;4.15;3.75;;;;;;;17.70;100.00;100670.34;4874170;29;20028;-89
2022/07/08 01:17:51;;;;;;;5.53;3.83;;;;;;;17.98;100.00;100681.81;4878256;29;20100;-87
2022/07/08 01:20:17;;;;;;;5.80;4.07;;;;;;;17.72;100.00;100672.81;4904896;29;20087;-87
2022/07/08 01:22:43;;;;;;;5.72;3.63;;;;;;;17.85;100.00;100675.47;4906787;29;20039;-87
2022/07/08 01:25:09;;;;;;;7.05;4.72;;;;;;;17.70;100.00;100680.97;4887446;29;20029;-87
2022/07/08 01:27:35;;;;;;;5.32;4.07;;;;;;;17.71;100.00;100692.41;4905937;29;20090;-86
2022/07/08 01:30:01;;;;;;;6.47;4.60;;;;;;;17.66;100.00;100674.41;4892060;29;20032;-87
2022/07/08 01:32:34;;;;;;;4.65;4.00;;;;;;;17.61;100.00;100674.22;4908390;29;20032;-86
2022/07/08 01:35:00;;;;;;;5.32;4.32;;;;;;;17.60;100.00;100663.78;4905219;29;20499;-86
2022/07/08 01:37:26;;;;;;;6.35;4.63;;;;;;;17.47;100.00;100677.84;4889244;29;20198;-87
2022/07/08 01:39:52;;;;;;;5.00;4.15;;;;;;;17.31;100.00;100666.56;4890163;29;20036;-88
2022/07/08 01:42:18;;;;;;;4.70;4.30;;;;;;;17.53;100.00;100687.66;4872785;29;20040;-87
2022/07/08 01:44:44;;;;;;;8.85;4.78;;;;;;;17.38;100.00;100674.53;4888920;29;20490;-87
2022/07/08 01:47:10;;;;;;;6.55;4.38;;;;;;;17.28;100.00;100665.09;4907135;29;20107;-87
2022/07/08 01:49:36;;;;;;;5.30;4.40;;;;;;;17.46;100.00;100673.56;4909310;29;20451;-87
2022/07/08 01:52:02;;;;;;;6.53;4.50;;;;;;;17.39;100.00;100670.88;4889828;29;20112;-86
2022/07/08 01:54:27;;;;;;;5.78;4.18;;;;;;;17.47;100.00;100676.00;4909314;29;20036;-89
2022/07/08 01:57:13;;;;;;;4.57;4.18;;;;;;;17.40;100.00;100673.34;4907484;29;20399;-89
2022/07/08 01:59:42;;;;;;;4.85;4.00;;;;;;;17.32;100.00;100670.03;4908519;29;20562;-90
2022/07/08 02:02:08;;;;;;;5.97;4.30;;;;;;;17.44;100.00;100673.75;4892934;29;20057;-89
2022/07/08 02:04:34;;;;;;;5.90;4.38;;;;;;;17.21;100.00;100669.59;4892143;29;20504;-89
2022/07/08 02:07:01;;;;;;;6.40;4.10;;;;;;;17.21;100.00;100674.88;4895955;29;20024;-90
2022/07/08 02:09:27;;;;;;;6.20;4.05;;;;;;;17.47;100.00;100672.53;4894865;29;20398;-90
2022/07/08 02:14:37;;;;;;;4.57;4.13;;;;;;;17.23;100.00;100669.41;4893187;29;20044;-89
2022/07/08 02:17:03;;;;;;;6.90;4.68;;;;;;;17.15;100.00;100653.63;4889411;29;20072;-88
2022/07/08 02:19:30;;;;;;;7.82;4.78;;;;;;;17.25;100.00;100660.19;4893193;29;20033;-89
2022/07/08 02:21:55;;;;;;;6.45;4.32;;;;;;;17.21;100.00;100674.88;4894167;29;20033;-90
2022/07/08 02:24:21;;;;;;;4.75;4.28;;;;;;;17.21;100.00;100658.97;4887466;29;20497;-89
2022/07/08 02:26:47;;;;;;;5.90;4.35;;;;;;;17.16;100.00;100653.44;4890963;29;20040;-88
2022/07/08 02:29:13;;;;;;;5.55;4.00;;;;;;;17.15;100.00;100650.97;4888935;29;20369;-89
2022/07/08 02:31:39;;;;;;;4.10;3.70;;;;;;;17.17;100.00;100662.22;4911499;29;20088;-88
2022/07/08 02:34:04;;;;;;;5.97;3.80;;;;;;;17.15;100.00;100649.16;4907876;29;20395;-88
2022/07/08 02:36:30;;;;;;;5.53;3.90;;;;;;;17.38;100.00;100648.00;4909622;29;20028;-88
2022/07/08 02:38:56;;;;;;;5.13;3.75;;;;;;;17.41;100.00;100652.91;4891427;29;20024;-90
2022/07/08 02:41:21;;;;;;;6.25;3.85;;;;;;;17.24;100.00;100647.94;4890706;29;20028;-88
2022/07/08 02:43:48;;;;;;;4.80;3.42;;;;;;;17.42;100.00;100657.19;4894642;29;20031;-87
2022/07/08 02:46:14;;;;;;;4.47;3.35;;;;;;;17.34;100.00;100655.53;4898286;29;20479;-87
2022/07/08 02:48:40;;;;;;;4.43;3.30;;;;;;;17.24;100.00;100668.38;4907370;29;20047;-84
2022/07/08 02:51:06;;;;;;;5.05;2.90;;;;;;;17.15;100.00;100661.59;4891816;29;20037;-86
2022/07/08 02:53:32;;;;;;;3.53;3.22;;;;;;;17.18;100.00;100663.84;4895589;29;20056;-84
2022/07/08 02:55:57;;;;;;;3.90;3.05;;;;;;;17.28;100.00;100659.00;4911979;29;20368;-86
2022/07/08 02:58:26;;;;;;;6.00;3.22;;;;;;;17.38;100.00;100663.94;4908706;29;20047;-85
2022/07/08 03:00:53;;;;;;;3.55;2.83;;;;;;;17.23;100.00;100656.94;4907157;29;20036;-86
2022/07/08 03:03:18;;;;;;;4.60;2.92;;;;;;;17.42;100.00;100659.84;4893381;29;20043;-86
2022/07/08 03:05:45;;;;;;;3.10;2.80;;;;;;;17.23;100.00;100653.47;4907072;29;20518;-85
2022/07/08 03:08:14;;;;;;;4.57;3.00;;;;;;;17.27;100.00;100660.00;4892303;29;20041;-86
2022/07/08 03:10:40;;;;;;;3.45;2.92;;;;;;;17.43;100.00;100661.50;4888692;29;20036;-87
2022/07/08 03:13:06;;;;;;;3.25;2.80;;;;;;;17.24;100.00;100658.56;4909597;29;20055;-86
2022/07/08 03:15:32;;;;;;;3.88;2.92;;;;;;;17.21;100.00;100658.97;4907594;29;20111;-86
2022/07/08 03:17:57;;;;;;;4.90;2.65;;;;;;;17.16;100.00;100672.03;4906223;29;20059;-84
2022/07/08 03:20:23;;;;;;;2.97;2.50;;;;;;;17.19;100.00;100666.31;4889488;29;20032;-87
2022/07/08 03:22:49;;;;;;;4.07;3.08;;;;;;;17.25;100.00;100654.91;4906449;29;20039;-87
2022/07/08 03:25:14;;;;;;;4.30;2.83;;;;;;;17.23;100.00;100641.00;4908887;29;20028;-86
2022/07/08 03:27:41;;;;;;;3.70;2.53;;;;;;;17.05;100.00;100651.34;4893483;29;20573;-87
2022/07/08 03:30:07;;;;;;;3.65;2.83;;;;;;;17.21;100.00;100645.69;4888714;29;20043;-87
2022/07/08 03:32:33;;;;;;;3.20;2.70;;;;;;;17.23;100.00;100651.63;4907160;29;20036;-88
2022/07/08 03:34:59;;;;;;;4.05;2.65;;;;;;;16.86;100.00;100645.72;4911548;29;20096;-88
2022/07/08 03:37:28;;;;;;;3.97;3.17;;;;;;;17.00;100.00;100659.91;4876121;29;20032;-87
2022/07/08 03:39:54;;;;;;;4.45;2.60;;;;;;;17.05;100.00;100657.50;4887712;29;20035;-87
2022/07/08 03:42:20;;;;;;;4.32;2.58;;;;;;;17.11;100.00;100647.94;4873599;29;20395;-87
2022/07/08 03:44:46;;;;;;;4.80;2.90;;;;;;;16.74;100.00;100657.91;4906635;29;20479;-86
2022/07/08 03:47:12;;;;;;;3.33;2.35;;;;;;;17.00;100.00;100657.28;4889523;29;20047;-87
2022/07/08 03:49:38;;;;;;;4.30;2.70;;;;;;;16.95;100.00;100647.22;4908815;29;20036;-85
2022/07/08 03:52:04;;;;;;;3.03;2.38;;;;;;;17.16;100.00;100645.50;4891816;29;20111;-86
2022/07/08 03:54:30;;;;;;;2.72;2.47;;;;;;;17.16;100.00;100649.97;4891997;29;20032;-86
2022/07/08 03:56:56;;;;;;;4.38;2.75;;;;;;;17.03;100.00;100646.25;4888740;29;20087;-85
2022/07/08 03:59:22;;;;;;;3.97;2.60;;;;;;;17.04;100.00;100657.66;4890065;29;20036;-86
2022/07/08 04:01:49;;;;;;;3.95;2.95;;;;;;;16.78;100.00;100657.31;4906736;29;20112;-86
2022/07/08 04:04:15;;;;;;;4.90;2.67;;;;;;;16.89;100.00;100655.94;4906147;29;20028;-86
2022/07/08 04:06:40;;;;;;;4.38;2.72;;;;;;;17.13;100.00;100661.81;4910366;29;20032;-87
2022/07/08 04:09:08;;;;;;;3.38;2.70;;;;;;;17.31;100.00;100668.41;4890787;29;20039;-85
2022/07/08 04:11:37;;;;;;;3.47;2.63;;;;;;;16.91;100.00;100659.22;4904941;29;20059;-87
2022/07/08 04:14:03;;;;;;;3.95;2.78;;;;;;;17.17;100.00;100665.69;4903537;29;20052;-85
2022/07/08 04:16:28;;;;;;;3.63;2.63;;;;;;;17.06;100.00;100677.69;4890748;29;20032;-86
2022/07/08 04:18:54;;;;;;;3.20;2.75;;;;;;;17.19;100.00;100661.00;4888449;29;20035;-86
2022/07/08 04:21:19;;;;;;;4.65;2.97;;;;;;;17.12;100.00;100668.94;4909394;29;20546;-86
2022/07/08 04:23:45;;;;;;;3.60;2.80;;;;;;;17.24;100.00;100671.84;4876768;29;20510;-90
2022/07/08 04:26:10;;;;;;;4.38;2.72;;;;;;;17.25;100.00;100670.81;4874953;29;20080;-89
2022/07/08 04:28:36;;;;;;;6.32;3.22;;;;;;;17.07;100.00;100655.44;4888773;29;20075;-88
2022/07/08 04:31:02;;;;;;;3.72;2.83;;;;;;;17.45;100.00;100670.06;4907850;29;20132;-87
2022/07/08 04:33:27;;;;;;;3.15;2.85;;;;;;;17.33;100.00;100658.41;4894865;29;20028;-89
2022/07/08 04:35:56;;;;;;;4.10;3.10;;;;;;;17.26;100.00;100661.84;4909112;29;20032;-86
2022/07/08 04:38:21;;;;;;;4.68;2.85;;;;;;;17.31;100.00;100663.91;4877346;29;20091;-87
2022/07/08 04:40:47;;;;;;;4.18;3.10;;;;;;;17.47;100.00;100672.53;4907208;29;20025;-89
2022/07/08 04:43:12;;;;;;;6.10;3.38;;;;;;;17.44;100.00;100657.81;4891405;29;20502;-89
2022/07/08 04:45:38;;;;;;;6.03;3.60;;;;;;;17.48;100.00;100669.66;4894573;29;20482;-89
2022/07/08 04:48:04;;;;;;;5.13;3.13;;;;;;;17.17;100.00;100670.16;4890362;29;20034;-88
2022/07/08 04:50:31;;;;;;;7.28;3.50;;;;;;;17.17;100.00;100668.34;4905724;29;20036;-87
2022/07/08 04:52:57;;;;;;;4.25;3.03;;;;;;;17.35;100.00;100667.00;4887500;29;20024;-89
2022/07/08 04:55:28;;;;;;;3.28;2.97;;;;;;;17.31;100.00;100668.41;4885714;29;20036;-87
2022/07/08 04:58:00;;;;;;;5.45;3.30;;;;;;;17.23;100.00;100656.94;4890614;29;20032;-86
2022/07/08 05:00:26;;;;;;;3.88;3.20;;;;;;;17.45;100.00;100669.25;4903089;29;20036;-88
2022/07/08 05:02:52;;;;;;;3.78;3.10;;;;;;;17.30;100.00;100680.03;4903754;29;20035;-88
2022/07/08 05:05:18;;;;;;;3.50;2.83;;;;;;;17.12;100.00;100662.81;4890735;29;20040;-86
2022/07/08 05:07:45;;;;;;;4.38;3.08;;;;;;;17.36;100.00;100665.97;4902433;29;20033;-88
2022/07/08 05:10:13;;;;;;;4.68;3.53;;;;;;;17.53;100.00;100653.13;4877045;29;20409;-88
2022/07/08 05:12:38;;;;;;;3.85;3.08;;;;;;;17.53;100.00;100672.56;4907700;29;20087;-89
2022/07/08 05:15:05;;;;;;;4.93;3.30;;;;;;;17.61;100.00;100678.69;4892028;29;20044;-87
2022/07/08 05:17:30;;;;;;;4.40;3.22;;;;;;;17.67;100.00;100662.78;4891753;29;20120;-87
2022/07/08 05:19:56;;;;;;;4.35;3.05;;;;;;;17.87;100.00;100680.59;4884174;29;20116;-87
2022/07/08 05:22:21;;;;;;;3.78;2.90;;;;;;;17.88;100.00;100678.72;4888330;29;20084;-87
2022/07/08 05:24:47;;;;;;;3.13;2.90;;;;;;;17.94;100.00;100683.25;4889236;29;20043;-86
2022/07/08 05:27:13;;;;;;;3.67;3.30;;;;;;;18.15;100.00;100674.28;4888932;29;20084;-87
2022/07/08 05:29:48;;;;;;;7.97;3.20;;;;;;;17.91;100.00;100683.66;4909394;29;20036;-85
2022/07/08 05:32:13;;;;;;;3.38;2.90;;;;;;;18.19;100.00;100694.13;4887777;29;20483;-86
2022/07/08 05:34:41;;;;;;;6.10;3.65;;;;;;;18.28;100.00;100700.06;4902167;29;20039;-86
2022/07/08 05:37:11;;;;;;;4.10;2.90;;;;;;;18.38;100.00;100684.50;4908226;29;20387;-86
2022/07/08 05:39:42;;;;;;;3.65;3.17;;;;;;;18.54;100.00;100682.44;4887822;29;20032;-88
2022/07/08 05:42:08;;;;;;;4.25;2.95;;;;;;;18.43;100.00;100689.22;4904470;29;20368;-87
2022/07/08 05:44:36;;;;;;;5.22;3.10;;;;;;;18.76;100.00;100698.16;4903695;29;20037;-86
2022/07/08 05:47:03;;;;;;;6.75;3.17;;;;;;;18.63;100.00;100694.50;4901538;29;20031;-85
2022/07/08 05:49:28;;;;;;;3.63;2.90;;;;;;;18.83;100.00;100696.28;4905349;29;20124;-89
2022/07/08 05:51:54;;;;;;;3.42;2.60;;;;;;;19.04;100.00;100691.75;4874184;29;20111;-88
2022/07/08 05:54:21;;;;;;;3.63;3.15;;;;;;;18.94;100.00;100700.97;4906250;29;20037;-86
2022/07/08 05:56:46;;;;;;;3.75;2.97;;;;;;;18.83;100.00;100696.28;4895314;29;20483;-86
2022/07/08 05:59:12;;;;;;;4.55;3.03;;;;;;;19.05;100.00;100688.06;4893302;29;20064;-88
2022/07/08 06:01:38;;;;;;;3.00;2.75;;;;;;;19.24;100.00;100702.34;4915992;29;20091;-87
2022/07/08 06:04:03;;;;;;;4.32;2.97;;;;;;;19.32;100.00;100714.59;4889366;29;20040;-88
2022/07/08 06:06:34;;;;;;;6.47;3.42;;;;;;;19.09;100.00;100721.25;4883631;29;20036;-87
2022/07/08 06:09:00;;;;;;;3.67;3.10;;;;;;;19.14;100.00;100718.75;4872207;29;20050;-86
2022/07/08 06:11:26;;;;;;;4.03;3.13;;;;;;;19.42;100.00;100714.97;4916146;29;20114;-87
2022/07/08 06:13:53;;;;;;;5.70;3.58;;;;;;;19.10;100.00;100722.88;4891240;29;20040;-88
2022/07/08 06:16:19;;;;;;;6.38;4.10;;;;;;;18.82;100.00;100723.91;4907314;29;20040;-88
2022/07/08 06:18:45;;;;;;;4.90;3.90;;;;;;;19.26;100.00;100724.25;4890491;29;20122;-89
2022/07/08 06:21:10;;;;;;;4.88;4.22;;;;;;;19.46;100.00;100731.34;4909762;29;20495;-89
2022/07/08 06:23:45;;;;;;;5.32;3.97;;;;;;;19.12;100.00;100716.31;4915164;29;20045;-90
2022/07/08 06:26:17;;;;;;;4.22;3.80;;;;;;;18.96;100.00;100727.38;4874790;29;20124;-84
2022/07/08 06:28:43;;;;;;;4.97;4.47;;;;;;;18.95;100.00;100737.22;4880967;29;20471;-82
2022/07/08 06:31:15;;;;;;;4.32;3.92;;;;;;;19.11;100.00;100727.97;4887719;29;20068;-85
2022/07/08 06:34:36;;;;;;;4.45;3.90;;;;;;;19.52;100.00;100739.31;4910861;29;20028;-86
2022/07/08 06:37:16;;;;;;;5.20;4.15;;;;;;;19.47;100.00;100728.47;4918604;29;20036;-87
2022/07/08 06:40:11;;;;;;;4.95;4.22;;;;;;;19.68;100.00;100729.19;4900228;29;20047;-88
2022/07/08 06:42:36;;;;;;;5.70;4.10;;;;;;;19.52;100.00;100739.31;4882895;29;20392;-89
2022/07/08 06:45:02;;;;;;;5.00;4.13;;;;;;;19.56;100.00;100731.72;4908151;29;20039;-86
2022/07/08 06:47:28;;;;;;;6.78;4.53;;;;;;;19.66;100.00;100728.59;4897913;29;20039;-89
2022/07/08 06:49:54;;;;;;;7.63;4.85;;;;;;;19.62;100.00;100730.84;4910302;29;20028;-88
2022/07/08 06:52:19;;;;;;;5.40;4.15;;;;;;;20.02;100.00;100739.66;4908622;29;21529;-86
2022/07/08 06:54:45;;;;;;;5.03;4.20;;;;;;;19.66;100.00;100741.91;4905579;29;20032;-87
2022/07/08 06:57:11;;;;;;;6.43;4.20;;;;;;;19.99;100.00;100746.22;4880538;29;20504;-86
2022/07/08 06:59:38;;;;;;;6.55;4.25;;;;;;;19.92;100.00;100742.81;4906455;29;20060;-83
2022/07/08 07:02:05;;;;;;;6.38;4.20;;;;;;;20.01;100.00;100736.16;4905308;29;20051;-84
2022/07/08 07:04:31;;;;;;;5.25;4.32;;;;;;;20.02;100.00;100740.47;4890555;29;20071;-84
2022/07/08 07:06:57;;;;;;;4.28;3.88;;;;;;;19.87;100.00;100758.59;4910504;29;20024;-88
2022/07/08 07:09:23;;;;;;;10.55;5.00;;;;;;;20.02;100.00;100740.47;4893730;29;20039;-86
2022/07/08 07:11:48;;;;;;;5.95;4.43;;;;;;;19.76;100.00;100752.91;4876700;29;20123;-85
2022/07/08 07:14:14;;;;;;;5.75;4.72;;;;;;;19.93;100.00;100747.09;4904066;29;20056;-86
2022/07/08 07:16:40;;;;;;;7.03;4.82;;;;;;;20.11;100.00;100736.53;4913743;29;20035;-89
2022/07/08 07:19:06;;;;;;;8.38;5.57;;;;;;;19.84;100.00;100744.66;4889764;29;20040;-88
2022/07/08 07:21:32;;;;;;;7.03;5.18;;;;;;;19.97;100.00;100743.81;4890942;29;20051;-88
2022/07/08 07:23:58;;;;;;;6.05;5.45;;;;;;;19.97;100.00;100749.13;4890437;29;20475;-88
2022/07/08 07:26:23;;;;;;;6.28;5.30;;;;;;;19.91;100.00;100733.97;4910591;29;20119;-90
2022/07/08 07:28:49;;;;;;;5.90;5.15;;;;;;;20.05;100.00;100740.06;4887696;29;20044;-90
2022/07/08 07:31:14;;;;;;;11.85;5.47;;;;;;;20.05;100.00;100734.72;4875687;29;20071;-90
2022/07/08 07:33:40;;;;;;;5.85;4.97;;;;;;;20.02;100.00;100739.66;4909164;29;20054;-90
2022/07/08 07:36:06;;;;;;;8.13;5.80;;;;;;;20.06;100.00;100741.69;4917236;29;20036;-91
2022/07/08 07:38:34;;;;;;;6.38;5.35;;;;;;;20.14;100.00;100735.25;4890542;29;20081;-91
2022/07/08 07:41:00;;;;;;;6.25;5.65;;;;;;;20.28;100.00;100738.66;4908014;29;20510;-88
2022/07/08 07:43:25;;;;;;;7.32;5.40;;;;;;;20.31;100.00;100732.88;4889590;29;20164;-89
2022/07/08 07:45:51;;;;;;;7.65;5.78;;;;;;;20.40;100.00;100747.56;4894795;29;20120;-88
2022/07/08 07:48:16;;;;;;;7.60;6.13;;;;;;;20.61;100.00;100750.88;4906865;29;20534;-89
2022/07/08 07:50:42;;;;;;;6.72;6.07;;;;;;;20.68;100.00;100748.16;4870875;29;20040;-88
2022/07/08 07:53:08;;;;;;;7.63;5.55;;;;;;;20.60;100.00;100757.25;4907146;29;20028;-89
2022/07/08 07:55:34;;;;;;;8.50;6.25;;;;;;;20.53;100.00;100746.63;4890263;29;20039;-89
2022/07/08 07:57:59;;;;;;;7.05;6.35;;;;;;;20.53;100.00;100751.16;4887637;29;20035;-89
2022/07/08 08:00:26;;;;;;;7.90;6.13;;;;;;;20.95;100.00;100748.75;4894211;29;20067;-91
2022/07/08 08:02:52;;;;;;;5.72;5.22;;;;;;;21.10;100.00;100752.91;4909840;29;20058;-88
2022/07/08 08:05:18;;;;;;;8.80;5.88;;;;;;;21.15;100.00;100755.72;4903981;29;20043;-88
2022/07/08 08:07:44;;;;;;;6.30;5.80;;;;;;;20.95;100.00;100758.63;4911645;29;20471;-88
2022/07/08 08:10:11;;;;;;;7.50;5.55;;;;;;;20.95;100.00;100754.06;4903900;29;20080;-92
2022/07/08 08:12:37;;;;;;;6.88;5.53;;;;;;;20.91;100.00;100763.56;4909352;29;20029;-88
2022/07/08 08:15:03;;;;;;;6.13;5.53;;;;;;;20.80;100.00;100748.28;4891487;29;20039;-89
2022/07/08 08:17:41;;;;;;;6.10;5.50;;;;;;;21.08;100.00;100763.78;4898427;29;20055;-90
2022/07/08 08:20:08;;;;;;;10.00;6.57;;;;;;;20.61;100.00;100768.75;4912891;29;20040;-89
2022/07/08 08:22:35;;;;;;;6.30;5.68;;;;;;;20.98;100.00;100764.31;4872962;29;20032;-90
2022/07/08 08:25:01;;;;;;;9.27;5.72;;;;;;;21.40;100.00;100765.50;4904425;29;20391;-89
2022/07/08 08:27:26;;;;;;;8.38;5.72;;;;;;;20.96;100.00;100763.72;4893414;29;20126;-90
2022/07/08 08:29:52;;;;;;;6.45;5.55;;;;;;;21.11;100.00;100766.00;4887372;29;20028;-88
2022/07/08 08:32:17;;;;;;;7.78;5.70;;;;;;;21.24;100.00;100770.41;4908623;29;20063;-90
2022/07/08 08:34:43;;;;;;;6.95;5.78;;;;;;;20.93;100.00;100766.84;4895609;29;20040;-88
2022/07/08 08:37:09;;;;;;;6.93;5.50;;;;;;;21.32;100.00;100763.13;4907017;29;20098;-88
2022/07/08 08:39:34;;;;;;;5.97;5.38;;;;;;;21.60;100.00;100767.09;4890943;29;20398;-90
2022/07/08 08:42:00;;;;;;;6.60;5.43;;;;;;;21.66;100.00;100758.22;4905590;29;20053;-89
2022/07/08 08:44:35;;;;;;;7.30;6.10;;;;;;;21.47;100.00;100754.72;4891857;29;20597;-88
2022/07/08 08:47:03;;;;;;;8.25;6.45;;;;;;;21.57;100.00;100743.50;4872715;29;20040;-91
2022/07/08 08:49:34;;;;;;;9.50;6.07;;;;;;;21.07;100.00;100756.81;4892354;29;20028;-89
2022/07/08 08:52:01;;;;;;;7.13;5.68;;;;;;;;;;4891936;29;20035;-88
2022/07/08 08:54:32;;;;;;;7.90;5.80;;;;;;;21.66;100.00;100758.22;4908981;29;20074;-89
2022/07/08 08:57:01;;;;;;;7.50;5.60;;;;;;;21.20;100.00;100745.16;4886413;29;20044;-91
2022/07/08 08:59:28;;;;;;;11.20;6.07;;;;;;;21.40;100.00;100744.13;4910260;29;20088;-88
2022/07/08 09:01:55;;;;;;;7.70;5.18;;;;;;;21.37;100.00;100749.91;4906261;29;20083;-90
2022/07/08 09:04:22;;;;;;;5.78;4.70;;;;;;;21.69;100.00;100747.09;4909689;29;20420;-89
2022/07/08 09:06:50;;;;;;;4.93;4.50;;;;;;;21.71;100.00;100750.34;4900389;29;20033;-88
2022/07/08 09:09:15;;;;;;;6.90;4.45;;;;;;;21.99;100.00;100751.56;4883686;29;20028;-88
2022/07/08 09:11:43;;;;;;;5.55;4.18;;;;;;;21.75;100.00;100730.13;4891196;29;20087;-88
2022/07/08 09:14:17;;;;;;;5.93;3.65;;;;;;;21.81;100.00;100742.59;4888161;29;20127;-89
2022/07/08 09:17:12;;;;;;;5.28;3.60;;;;;;;21.79;100.00;100739.31;4906808;29;20032;-89
2022/07/08 09:19:41;;;;;;;4.38;3.28;;;;;;;21.99;100.00;100740.88;4911107;29;20583;-89
2022/07/08 09:22:10;;;;;;;4.40;3.00;;;;;;;22.06;100.00;100746.13;4880618;29;20041;-89
2022/07/08 09:24:38;;;;;;;3.13;2.80;;;;;;;21.50;100.00;100740.91;4886830;29;20045;-88
2022/07/08 09:27:06;;;;;;;3.53;3.00;;;;;;;21.75;100.00;100729.31;4902521;29;20037;-89
2022/07/08 09:29:32;;;;;;;3.53;3.22;;;;;;;21.93;100.00;100723.09;4911855;29;20061;-88
2022/07/08 09:32:12;;;;;;;4.30;2.85;;;;;;;21.94;100.00;100730.91;4885682;29;20566;-89
2022/07/08 09:34:37;;;;;;;3.60;3.30;;;;;;;22.05;100.00;100742.66;4903758;29;20028;-88
2022/07/08 09:37:16;;;;;;;3.70;3.40;;;;;;;22.35;100.00;100723.03;4903489;29;20054;-88
2022/07/08 09:39:43;;;;;;;3.80;3.20;;;;;;;21.76;100.00;100729.09;4872114;29;20039;-89
2022/07/08 09:42:11;;;;;;;4.57;3.28;;;;;;;22.05;100.00;100726.63;4905876;29;20020;-89
2022/07/08 09:44:37;;;;;;;2.95;2.75;;;;;;;22.58;100.00;100726.78;4904885;29;20071;-88
2022/07/08 09:47:14;;;;;;;3.65;2.97;;;;;;;22.37;100.00;100723.63;4900490;29;20032;-88
2022/07/08 09:49:45;;;;;;;3.17;2.95;;;;;;;22.49;100.00;100718.28;4904557;29;20064;-88
2022/07/08 09:52:19;;;;;;;5.43;3.28;;;;;;;22.56;100.00;100723.53;4905543;29;20040;-89
2022/07/08 09:54:45;;;;;;;3.60;3.30;;;;;;;22.64;100.00;100715.16;4907336;29;20036;-90
2022/07/08 09:57:13;;;;;;;3.40;3.10;;;;;;;22.44;100.00;100726.19;4889057;29;20033;-89
2022/07/08 09:59:39;;;;;;;3.72;3.28;;;;;;;22.83;100.00;100725.75;4905269;29;20039;-88
2022/07/08 10:02:05;;;;;;;5.95;3.58;;;;;;;22.78;100.00;100722.94;4903110;29;20029;-87
2022/07/08 10:04:31;;;;;;;4.07;3.70;;;;;;;22.95;100.00;100715.81;4905831;29;20084;-88
2022/07/08 10:06:58;;;;;;;3.75;3.40;;;;;;;23.12;100.00;100707.03;4907904;29;20028;-88
2022/07/08 10:09:25;;;;;;;4.30;3.90;;;;;;;22.99;100.00;100712.66;4898037;29;20028;-88
2022/07/08 10:11:52;;;;;;;3.70;3.33;;;;;;;22.89;100.00;100716.75;4888809;29;20036;-88
2022/07/08 10:14:20;;;;;;;5.15;3.40;;;;;;;22.91;99.71;100711.19;4891832;29;20048;-89
2022/07/08 10:16:47;;;;;;;4.70;3.75;;;;;;;23.29;99.17;100719.72;4896386;29;20046;-87
2022/07/08 10:19:17;;;;;;;4.03;3.45;;;;;;;22.68;98.25;100721.69;4896749;29;20024;-88
2022/07/08 10:21:46;;;;;;;4.88;3.83;;;;;;;23.13;100.00;100713.22;4877705;29;20036;-87
2022/07/08 10:24:20;;;;;;;4.53;4.05;;;;;;;23.29;99.37;100704.47;4908350;29;20036;-90
2022/07/08 10:26:47;;;;;;;7.47;4.05;;;;;;;23.29;100.00;100698.28;4889928;29;20451;-89
2022/07/08 10:29:14;;;;;;;4.40;4.00;;;;;;;23.26;99.80;100710.28;4876535;29;20032;-90
2022/07/08 10:31:53;;;;;;;5.90;4.07;;;;;;;23.17;98.97;100711.69;4889888;29;20036;-89
2022/07/08 10:34:21;;;;;;;5.03;4.15;;;;;;;23.30;100.00;100694.56;4881677;29;20034;-89
2022/07/08 10:36:52;;;;;;;6.10;4.68;;;;;;;23.42;98.78;100702.53;4874285;29;20608;-88
2022/07/08 10:39:33;;;;;;;5.80;4.20;;;;;;;23.84;98.43;100701.41;4885158;29;20092;-90
2022/07/08 10:42:02;;;;;;;6.70;3.75;;;;;;;23.47;98.23;100694.59;4893534;29;20123;-90
2022/07/08 10:44:43;;;;;;;4.35;3.92;;;;;;;23.51;97.37;100711.84;4893776;29;20028;-92
2022/07/08 10:47:15;;;;;;;4.70;3.67;;;;;;;23.37;96.33;100711.28;4918953;29;20028;-90
2022/07/08 10:49:42;;;;;;;4.38;3.97;;;;;;;23.53;96.90;100702.50;4901890;29;20032;-91
2022/07/08 10:52:08;;;;;;;5.90;3.88;;;;;;;23.45;97.36;100708.25;4874478;29;20444;-91
2022/07/08 10:54:37;;;;;;;3.88;3.58;;;;;;;23.58;95.78;100722.38;4908324;29;20036;-88
2022/07/08 10:57:13;;;;;;;5.20;3.60;;;;;;;23.14;95.97;100712.97;4875667;29;20039;-89
2022/07/08 10:59:39;;;;;;;3.67;3.38;;;;;;;23.60;94.34;100717.63;4888216;29;20043;-89
2022/07/08 11:02:12;;;;;;;6.13;3.78;;;;;;;23.82;93.28;100715.88;4903345;29;20037;-89
2022/07/08 11:04:37;;;;;;;3.80;3.50;;;;;;;23.29;93.88;100725.91;4910210;29;20044;-90
2022/07/08 11:07:28;;;;;;;5.95;3.85;;;;;;;23.21;94.71;100711.00;4879257;29;20087;-88
2022/07/08 11:10:08;;;;;;;7.10;3.95;;;;;;;23.38;95.13;100719.09;4876082;29;20032;-89
2022/07/08 11:12:34;;;;;;;5.97;4.07;;;;;;;23.48;94.23;100717.66;4889437;29;20517;-88
2022/07/08 11:15:01;;;;;;;6.93;3.53;;;;;;;23.72;93.05;100720.25;4908101;29;20048;-86
2022/07/08 11:17:30;;;;;;;3.47;3.15;;;;;;;23.79;91.53;100723.59;4912185;29;20091;-87
2022/07/08 11:19:58;;;;;;;6.40;3.53;;;;;;;23.66;91.15;100716.66;4909526;29;20024;-87
2022/07/08 11:22:25;;;;;;;5.53;3.28;;;;;;;23.82;90.80;100715.88;4903090;29;20043;-89
2022/07/08 11:24:52;;;;;;;3.55;3.25;;;;;;;23.86;90.11;100726.13;4904762;29;20084;-88